sensor_id;sensor_type;location;lat;lon;timestamp;temperature;humidity
20915;DHT22;10617;52.032;5.298;2024-01-07T00:02:09;2.50;99.90
20915;DHT22;10617;52.032;5.298;2024-01-07T00:06:11;2.50;99.90
20915;DHT22;10617;52.032;5.298;2024-01-07T00:10:13;2.50;99.90
20915;DHT22;10617;52.032;5.298;2024-01-07T00:14:15;2.50;99.90
20915;DHT22;10617;52.032;5.298;2024-01-07T00:18:16;2.50;99.90
20915;DHT22;10617;52.032;5.298;2024-01-07T00:22:18;2.40;99.90
20915;DHT22;10617;52.032;5.298;2024-01-07T00:26:20;2.40;99.90
20915;DHT22;10617;52.032;5.298;2024-01-07T00:30:21;2.30;99.90
20915;DHT22;10617;52.032;5.298;2024-01-07T00:34:23;2.30;99.90
20915;DHT22;10617;52.032;5.298;2024-01-07T00:38:25;2.30;99.90
20915;DHT22;10617;52.032;5.298;2024-01-07T00:42:27;2.30;99.90
20915;DHT22;10617;52.032;5.298;2024-01-07T00:46:28;2.30;99.90
20915;DHT22;10617;52.032;5.298;2024-01-07T00:50:30;2.30;99.90
20915;DHT22;10617;52.032;5.298;2024-01-07T00:54:32;2.30;99.90
20915;DHT22;10617;52.032;5.298;2024-01-07T00:58:33;2.30;99.90
20915;DHT22;10617;52.032;5.298;2024-01-07T01:02:37;2.30;99.90
20915;DHT22;10617;52.032;5.298;2024-01-07T01:06:38;2.30;99.90
20915;DHT22;10617;52.032;5.298;2024-01-07T01:10:40;2.30;99.90
20915;DHT22;10617;52.032;5.298;2024-01-07T01:14:42;2.30;99.90
20915;DHT22;10617;52.032;5.298;2024-01-07T01:18:44;2.30;99.90
20915;DHT22;10617;52.032;5.298;2024-01-07T01:22:45;2.30;99.90
20915;DHT22;10617;52.032;5.298;2024-01-07T01:26:47;2.20;99.90
20915;DHT22;10617;52.032;5.298;2024-01-07T01:30:49;2.30;99.90
20915;DHT22;10617;52.032;5.298;2024-01-07T01:34:50;2.30;99.90
20915;DHT22;10617;52.032;5.298;2024-01-07T01:38:52;2.20;99.90
20915;DHT22;10617;52.032;5.298;2024-01-07T01:52:54;2.20;99.90
20915;DHT22;10617;52.032;5.298;2024-01-07T01:56:57;2.20;99.90
20915;DHT22;10617;52.032;5.298;2024-01-07T02:00:59;2.20;99.90
20915;DHT22;10617;52.032;5.298;2024-01-07T02:05:01;2.20;99.90
20915;DHT22;10617;52.032;5.298;2024-01-07T02:09:03;2.20;99.90
20915;DHT22;10617;52.032;5.298;2024-01-07T02:13:05;2.20;99.90
20915;DHT22;10617;52.032;5.298;2024-01-07T02:17:07;2.20;99.90
20915;DHT22;10617;52.032;5.298;2024-01-07T02:21:09;2.20;99.90
20915;DHT22;10617;52.032;5.298;2024-01-07T02:25:11;2.10;99.90
20915;DHT22;10617;52.032;5.298;2024-01-07T02:29:13;2.10;99.90
20915;DHT22;10617;52.032;5.298;2024-01-07T02:33:15;2.10;99.90
20915;DHT22;10617;52.032;5.298;2024-01-07T02:37:16;2.10;99.90
20915;DHT22;10617;52.032;5.298;2024-01-07T02:41:18;2.10;99.90
20915;DHT22;10617;52.032;5.298;2024-01-07T02:45:21;2.10;99.90
20915;DHT22;10617;52.032;5.298;2024-01-07T02:49:23;2.10;99.90
20915;DHT22;10617;52.032;5.298;2024-01-07T02:53:24;2.10;99.90
20915;DHT22;10617;52.032;5.298;2024-01-07T02:57:26;2.10;99.90
20915;DHT22;10617;52.032;5.298;2024-01-07T03:01:28;2.10;99.90
20915;DHT22;10617;52.032;5.298;2024-01-07T03:05:30;2.10;99.90
20915;DHT22;10617;52.032;5.298;2024-01-07T03:09:34;2.10;99.90
20915;DHT22;10617;52.032;5.298;2024-01-07T03:13:35;2.10;99.90
20915;DHT22;10617;52.032;5.298;2024-01-07T03:17:37;2.10;99.90
20915;DHT22;10617;52.032;5.298;2024-01-07T03:21:39;2.10;99.90
20915;DHT22;10617;52.032;5.298;2024-01-07T03:25:41;2.10;99.90
20915;DHT22;10617;52.032;5.298;2024-01-07T03:29:42;2.10;99.90
20915;DHT22;10617;52.032;5.298;2024-01-07T03:33:44;2.00;99.90
20915;DHT22;10617;52.032;5.298;2024-01-07T03:37:46;2.00;99.90
20915;DHT22;10617;52.032;5.298;2024-01-07T03:41:47;2.00;99.90
20915;DHT22;10617;52.032;5.298;2024-01-07T03:45:49;2.00;99.90
20915;DHT22;10617;52.032;5.298;2024-01-07T03:49:51;2.00;99.90
20915;DHT22;10617;52.032;5.298;2024-01-07T03:53:53;2.00;99.90
20915;DHT22;10617;52.032;5.298;2024-01-07T03:57:54;2.00;99.90
20915;DHT22;10617;52.032;5.298;2024-01-07T04:01:56;2.00;99.90
20915;DHT22;10617;52.032;5.298;2024-01-07T04:05:58;2.00;99.90
20915;DHT22;10617;52.032;5.298;2024-01-07T04:10:00;1.90;99.90
20915;DHT22;10617;52.032;5.298;2024-01-07T04:14:02;2.00;99.90
20915;DHT22;10617;52.032;5.298;2024-01-07T04:18:04;1.90;99.90
20915;DHT22;10617;52.032;5.298;2024-01-07T04:22:06;1.90;99.90
20915;DHT22;10617;52.032;5.298;2024-01-07T04:26:07;1.90;99.90
20915;DHT22;10617;52.032;5.298;2024-01-07T04:30:09;1.90;99.90
20915;DHT22;10617;52.032;5.298;2024-01-07T04:34:11;1.90;99.90
20915;DHT22;10617;52.032;5.298;2024-01-07T04:38:13;1.90;99.90
20915;DHT22;10617;52.032;5.298;2024-01-07T04:42:18;1.90;99.90
20915;DHT22;10617;52.032;5.298;2024-01-07T04:46:19;1.90;99.90
20915;DHT22;10617;52.032;5.298;2024-01-07T04:50:21;1.90;99.90
20915;DHT22;10617;52.032;5.298;2024-01-07T04:54:23;1.90;99.90
20915;DHT22;10617;52.032;5.298;2024-01-07T04:58:25;1.90;99.90
20915;DHT22;10617;52.032;5.298;2024-01-07T05:12:33;1.90;99.90
20915;DHT22;10617;52.032;5.298;2024-01-07T05:16:35;1.90;99.90
20915;DHT22;10617;52.032;5.298;2024-01-07T05:20:37;1.90;99.90
20915;DHT22;10617;52.032;5.298;2024-01-07T05:24:38;1.90;99.90
20915;DHT22;10617;52.032;5.298;2024-01-07T05:28:40;1.90;99.90
20915;DHT22;10617;52.032;5.298;2024-01-07T05:32:42;1.90;99.90
20915;DHT22;10617;52.032;5.298;2024-01-07T05:36:44;1.90;99.90
20915;DHT22;10617;52.032;5.298;2024-01-07T05:40:45;1.90;99.90
20915;DHT22;10617;52.032;5.298;2024-01-07T05:44:48;1.90;99.90
20915;DHT22;10617;52.032;5.298;2024-01-07T05:48:49;1.90;99.90
20915;DHT22;10617;52.032;5.298;2024-01-07T05:52:51;1.90;99.90
20915;DHT22;10617;52.032;5.298;2024-01-07T05:56:53;1.80;99.90
20915;DHT22;10617;52.032;5.298;2024-01-07T06:00:55;1.80;99.90
20915;DHT22;10617;52.032;5.298;2024-01-07T06:04:57;1.80;99.90
20915;DHT22;10617;52.032;5.298;2024-01-07T06:08:58;1.80;99.90
20915;DHT22;10617;52.032;5.298;2024-01-07T06:13:00;1.80;99.90
20915;DHT22;10617;52.032;5.298;2024-01-07T06:17:02;1.90;99.90
20915;DHT22;10617;52.032;5.298;2024-01-07T06:21:04;1.90;99.90
20915;DHT22;10617;52.032;5.298;2024-01-07T06:25:06;1.80;99.90
20915;DHT22;10617;52.032;5.298;2024-01-07T06:29:08;1.80;99.90
20915;DHT22;10617;52.032;5.298;2024-01-07T06:33:11;1.80;99.90
20915;DHT22;10617;52.032;5.298;2024-01-07T06:52:23;1.80;99.90
20915;DHT22;10617;52.032;5.298;2024-01-07T06:56:25;1.80;99.90
20915;DHT22;10617;52.032;5.298;2024-01-07T07:00:27;1.80;99.90
20915;DHT22;10617;52.032;5.298;2024-01-07T07:04:29;1.80;99.90
20915;DHT22;10617;52.032;5.298;2024-01-07T07:08:30;1.80;99.90
20915;DHT22;10617;52.032;5.298;2024-01-07T07:12:32;1.80;99.90
20915;DHT22;10617;52.032;5.298;2024-01-07T07:16:36;1.80;99.90
20915;DHT22;10617;52.032;5.298;2024-01-07T07:20:38;1.80;99.90
20915;DHT22;10617;52.032;5.298;2024-01-07T07:24:40;1.80;99.90
20915;DHT22;10617;52.032;5.298;2024-01-07T07:28:42;1.80;99.90
20915;DHT22;10617;52.032;5.298;2024-01-07T07:32:44;1.70;99.90
20915;DHT22;10617;52.032;5.298;2024-01-07T07:36:46;1.70;99.90
20915;DHT22;10617;52.032;5.298;2024-01-07T07:40:48;1.70;99.90
20915;DHT22;10617;52.032;5.298;2024-01-07T07:44:54;1.70;99.90
20915;DHT22;10617;52.032;5.298;2024-01-07T07:48:56;1.70;99.90
20915;DHT22;10617;52.032;5.298;2024-01-07T07:52:57;1.70;99.90
20915;DHT22;10617;52.032;5.298;2024-01-07T07:56:59;1.70;99.90
20915;DHT22;10617;52.032;5.298;2024-01-07T08:01:01;1.70;99.90
20915;DHT22;10617;52.032;5.298;2024-01-07T08:05:03;1.70;99.90
20915;DHT22;10617;52.032;5.298;2024-01-07T08:09:05;1.60;99.90
20915;DHT22;10617;52.032;5.298;2024-01-07T08:13:07;1.60;99.90
20915;DHT22;10617;52.032;5.298;2024-01-07T08:17:09;1.60;99.90
20915;DHT22;10617;52.032;5.298;2024-01-07T08:21:10;1.60;99.90
20915;DHT22;10617;52.032;5.298;2024-01-07T08:25:12;1.60;99.90
20915;DHT22;10617;52.032;5.298;2024-01-07T08:29:14;1.60;99.90
20915;DHT22;10617;52.032;5.298;2024-01-07T08:33:16;1.60;99.90
20915;DHT22;10617;52.032;5.298;2024-01-07T08:37:18;1.60;99.90
20915;DHT22;10617;52.032;5.298;2024-01-07T08:41:19;1.60;99.90
20915;DHT22;10617;52.032;5.298;2024-01-07T08:45:21;1.60;99.90
20915;DHT22;10617;52.032;5.298;2024-01-07T08:49:23;1.60;99.90
20915;DHT22;10617;52.032;5.298;2024-01-07T08:53:26;1.50;99.90
20915;DHT22;10617;52.032;5.298;2024-01-07T08:57:27;1.50;99.90
20915;DHT22;10617;52.032;5.298;2024-01-07T09:01:29;1.50;99.90
20915;DHT22;10617;52.032;5.298;2024-01-07T09:05:31;1.50;99.90
20915;DHT22;10617;52.032;5.298;2024-01-07T09:09:33;1.50;99.90
20915;DHT22;10617;52.032;5.298;2024-01-07T09:13:35;1.50;99.90
20915;DHT22;10617;52.032;5.298;2024-01-07T09:17:36;1.50;99.90
20915;DHT22;10617;52.032;5.298;2024-01-07T09:21:39;1.50;99.90
20915;DHT22;10617;52.032;5.298;2024-01-07T09:25:41;1.50;99.90
20915;DHT22;10617;52.032;5.298;2024-01-07T09:29:43;1.50;99.90
20915;DHT22;10617;52.032;5.298;2024-01-07T09:33:45;1.60;99.90
20915;DHT22;10617;52.032;5.298;2024-01-07T09:37:46;1.60;99.90
20915;DHT22;10617;52.032;5.298;2024-01-07T09:41:48;1.60;99.90
20915;DHT22;10617;52.032;5.298;2024-01-07T09:45:50;1.60;99.90
20915;DHT22;10617;52.032;5.298;2024-01-07T09:49:53;1.60;99.90
20915;DHT22;10617;52.032;5.298;2024-01-07T09:53:56;1.60;99.90
20915;DHT22;10617;52.032;5.298;2024-01-07T09:57:58;1.70;99.90
20915;DHT22;10617;52.032;5.298;2024-01-07T10:02:00;1.60;99.90
20915;DHT22;10617;52.032;5.298;2024-01-07T10:06:02;1.60;99.90
20915;DHT22;10617;52.032;5.298;2024-01-07T10:10:12;1.70;99.90
20915;DHT22;10617;52.032;5.298;2024-01-07T10:14:13;1.70;99.90
20915;DHT22;10617;52.032;5.298;2024-01-07T10:18:15;1.80;99.90
20915;DHT22;10617;52.032;5.298;2024-01-07T10:22:17;1.80;99.90
20915;DHT22;10617;52.032;5.298;2024-01-07T10:26:21;1.70;99.90
20915;DHT22;10617;52.032;5.298;2024-01-07T10:30:28;1.80;99.90
20915;DHT22;10617;52.032;5.298;2024-01-07T10:34:31;1.90;99.90
20915;DHT22;10617;52.032;5.298;2024-01-07T10:38:33;1.90;99.90
20915;DHT22;10617;52.032;5.298;2024-01-07T10:42:35;1.90;99.90
20915;DHT22;10617;52.032;5.298;2024-01-07T10:46:37;1.90;99.90
20915;DHT22;10617;52.032;5.298;2024-01-07T10:50:39;1.90;99.90
20915;DHT22;10617;52.032;5.298;2024-01-07T10:54:41;1.80;99.90
20915;DHT22;10617;52.032;5.298;2024-01-07T10:58:44;1.80;99.90
20915;DHT22;10617;52.032;5.298;2024-01-07T11:07:09;2.10;99.90
20915;DHT22;10617;52.032;5.298;2024-01-07T11:11:18;2.80;99.90
20915;DHT22;10617;52.032;5.298;2024-01-07T11:19:50;4.40;99.90
20915;DHT22;10617;52.032;5.298;2024-01-07T11:23:57;5.00;99.90
20915;DHT22;10617;52.032;5.298;2024-01-07T11:28:00;5.30;99.90
20915;DHT22;10617;52.032;5.298;2024-01-07T11:32:02;5.70;99.90
20915;DHT22;10617;52.032;5.298;2024-01-07T11:36:04;5.50;99.90
20915;DHT22;10617;52.032;5.298;2024-01-07T11:40:08;5.20;99.90
20915;DHT22;10617;52.032;5.298;2024-01-07T11:44:10;5.70;99.90
20915;DHT22;10617;52.032;5.298;2024-01-07T11:48:13;6.40;99.90
20915;DHT22;10617;52.032;5.298;2024-01-07T11:52:15;7.10;99.90
20915;DHT22;10617;52.032;5.298;2024-01-07T11:56:18;7.70;99.90
20915;DHT22;10617;52.032;5.298;2024-01-07T12:00:19;8.20;99.90
20915;DHT22;10617;52.032;5.298;2024-01-07T12:04:21;8.60;99.90
20915;DHT22;10617;52.032;5.298;2024-01-07T12:08:23;8.60;99.90
20915;DHT22;10617;52.032;5.298;2024-01-07T12:12:25;8.60;99.90
20915;DHT22;10617;52.032;5.298;2024-01-07T12:16:27;8.60;99.90
20915;DHT22;10617;52.032;5.298;2024-01-07T12:20:28;8.50;99.90
20915;DHT22;10617;52.032;5.298;2024-01-07T12:24:30;8.60;99.90
20915;DHT22;10617;52.032;5.298;2024-01-07T12:28:32;8.90;99.90
20915;DHT22;10617;52.032;5.298;2024-01-07T12:32:34;9.10;99.90
20915;DHT22;10617;52.032;5.298;2024-01-07T12:36:36;9.20;99.90
20915;DHT22;10617;52.032;5.298;2024-01-07T12:40:38;9.30;99.90
20915;DHT22;10617;52.032;5.298;2024-01-07T12:44:40;9.20;99.90
20915;DHT22;10617;52.032;5.298;2024-01-07T12:48:43;8.90;99.90
20915;DHT22;10617;52.032;5.298;2024-01-07T12:52:44;8.60;99.90
20915;DHT22;10617;52.032;5.298;2024-01-07T12:56:47;8.30;99.90
20915;DHT22;10617;52.032;5.298;2024-01-07T13:00:48;8.60;99.90
20915;DHT22;10617;52.032;5.298;2024-01-07T13:04:50;9.20;99.90
20915;DHT22;10617;52.032;5.298;2024-01-07T13:08:52;9.70;99.90
20915;DHT22;10617;52.032;5.298;2024-01-07T13:12:54;10.10;99.90
20915;DHT22;10617;52.032;5.298;2024-01-07T13:17:01;10.00;99.90
20915;DHT22;10617;52.032;5.298;2024-01-07T13:21:03;9.70;99.90
20915;DHT22;10617;52.032;5.298;2024-01-07T13:25:05;9.80;99.90
20915;DHT22;10617;52.032;5.298;2024-01-07T13:29:07;9.90;99.90
20915;DHT22;10617;52.032;5.298;2024-01-07T13:33:09;9.50;99.90
20915;DHT22;10617;52.032;5.298;2024-01-07T13:37:11;8.50;99.90
20915;DHT22;10617;52.032;5.298;2024-01-07T13:41:12;7.30;99.90
20915;DHT22;10617;52.032;5.298;2024-01-07T13:45:15;6.40;99.90
20915;DHT22;10617;52.032;5.298;2024-01-07T13:49:18;5.70;99.90
20915;DHT22;10617;52.032;5.298;2024-01-07T13:53:20;5.40;99.90
20915;DHT22;10617;52.032;5.298;2024-01-07T13:57:21;5.30;99.90
20915;DHT22;10617;52.032;5.298;2024-01-07T14:01:23;5.30;99.90
20915;DHT22;10617;52.032;5.298;2024-01-07T14:05:25;5.40;99.90
20915;DHT22;10617;52.032;5.298;2024-01-07T14:09:26;5.30;99.90
20915;DHT22;10617;52.032;5.298;2024-01-07T14:13:32;5.20;99.90
20915;DHT22;10617;52.032;5.298;2024-01-07T14:17:34;5.00;99.90
20915;DHT22;10617;52.032;5.298;2024-01-07T14:21:36;4.80;99.90
20915;DHT22;10617;52.032;5.298;2024-01-07T14:25:38;4.70;99.90
20915;DHT22;10617;52.032;5.298;2024-01-07T14:29:39;4.50;99.90
20915;DHT22;10617;52.032;5.298;2024-01-07T14:33:41;4.30;99.90
20915;DHT22;10617;52.032;5.298;2024-01-07T14:37:43;4.10;99.90
20915;DHT22;10617;52.032;5.298;2024-01-07T14:41:44;4.10;99.90
20915;DHT22;10617;52.032;5.298;2024-01-07T14:45:48;4.10;99.90
20915;DHT22;10617;52.032;5.298;2024-01-07T14:49:49;4.00;99.90
20915;DHT22;10617;52.032;5.298;2024-01-07T14:53:51;4.00;99.90
20915;DHT22;10617;52.032;5.298;2024-01-07T14:57:53;4.10;99.90
20915;DHT22;10617;52.032;5.298;2024-01-07T15:01:54;4.60;99.90
20915;DHT22;10617;52.032;5.298;2024-01-07T15:05:56;5.20;99.90
20915;DHT22;10617;52.032;5.298;2024-01-07T15:09:58;5.70;99.90
20915;DHT22;10617;52.032;5.298;2024-01-07T15:14:01;5.90;99.90
20915;DHT22;10617;52.032;5.298;2024-01-07T15:18:08;5.70;99.90
20915;DHT22;10617;52.032;5.298;2024-01-07T15:22:10;5.70;99.90
20915;DHT22;10617;52.032;5.298;2024-01-07T15:26:11;5.30;99.90
20915;DHT22;10617;52.032;5.298;2024-01-07T15:30:13;4.90;99.90
20915;DHT22;10617;52.032;5.298;2024-01-07T15:34:18;4.50;99.90
20915;DHT22;10617;52.032;5.298;2024-01-07T15:38:20;4.20;99.90
20915;DHT22;10617;52.032;5.298;2024-01-07T15:42:22;3.80;99.90
20915;DHT22;10617;52.032;5.298;2024-01-07T15:46:24;3.50;99.90
20915;DHT22;10617;52.032;5.298;2024-01-07T15:50:26;3.40;99.90
20915;DHT22;10617;52.032;5.298;2024-01-07T15:54:28;3.30;99.90
20915;DHT22;10617;52.032;5.298;2024-01-07T15:58:29;3.20;99.90
20915;DHT22;10617;52.032;5.298;2024-01-07T16:02:35;3.10;99.90
20915;DHT22;10617;52.032;5.298;2024-01-07T16:06:36;3.00;99.90
20915;DHT22;10617;52.032;5.298;2024-01-07T16:10:38;2.80;99.90
20915;DHT22;10617;52.032;5.298;2024-01-07T16:14:40;2.80;99.90
20915;DHT22;10617;52.032;5.298;2024-01-07T16:18:43;2.70;99.90
20915;DHT22;10617;52.032;5.298;2024-01-07T16:22:45;2.60;99.90
20915;DHT22;10617;52.032;5.298;2024-01-07T16:26:47;2.50;99.90
20915;DHT22;10617;52.032;5.298;2024-01-07T16:30:49;2.50;99.90
20915;DHT22;10617;52.032;5.298;2024-01-07T16:34:54;2.50;99.90
20915;DHT22;10617;52.032;5.298;2024-01-07T16:38:56;2.40;99.90
20915;DHT22;10617;52.032;5.298;2024-01-07T16:42:58;2.40;99.90
20915;DHT22;10617;52.032;5.298;2024-01-07T16:47:01;2.30;99.90
20915;DHT22;10617;52.032;5.298;2024-01-07T16:51:03;2.30;99.90
20915;DHT22;10617;52.032;5.298;2024-01-07T16:55:05;2.40;99.90
20915;DHT22;10617;52.032;5.298;2024-01-07T16:59:09;2.30;99.90
20915;DHT22;10617;52.032;5.298;2024-01-07T17:03:12;2.30;99.90
20915;DHT22;10617;52.032;5.298;2024-01-07T17:07:14;2.20;99.90
20915;DHT22;10617;52.032;5.298;2024-01-07T17:11:16;2.10;99.90
20915;DHT22;10617;52.032;5.298;2024-01-07T17:15:18;2.00;99.90
20915;DHT22;10617;52.032;5.298;2024-01-07T17:19:21;1.90;99.90
20915;DHT22;10617;52.032;5.298;2024-01-07T17:23:23;1.80;99.90
20915;DHT22;10617;52.032;5.298;2024-01-07T17:27:25;1.80;99.90
20915;DHT22;10617;52.032;5.298;2024-01-07T17:31:26;1.80;99.90
20915;DHT22;10617;52.032;5.298;2024-01-07T17:35:28;1.70;99.90
20915;DHT22;10617;52.032;5.298;2024-01-07T17:39:32;1.70;99.90
20915;DHT22;10617;52.032;5.298;2024-01-07T17:43:35;1.70;99.90
20915;DHT22;10617;52.032;5.298;2024-01-07T17:47:40;1.60;99.90
20915;DHT22;10617;52.032;5.298;2024-01-07T17:51:42;1.60;99.90
20915;DHT22;10617;52.032;5.298;2024-01-07T17:55:46;1.60;99.90
20915;DHT22;10617;52.032;5.298;2024-01-07T17:59:48;1.50;99.90
20915;DHT22;10617;52.032;5.298;2024-01-07T18:03:50;1.50;99.90
20915;DHT22;10617;52.032;5.298;2024-01-07T18:07:51;1.50;99.90
20915;DHT22;10617;52.032;5.298;2024-01-07T18:11:53;1.40;99.90
20915;DHT22;10617;52.032;5.298;2024-01-07T18:15:55;1.40;99.90
20915;DHT22;10617;52.032;5.298;2024-01-07T18:19:58;1.30;99.90
20915;DHT22;10617;52.032;5.298;2024-01-07T18:24:00;1.20;99.90
20915;DHT22;10617;52.032;5.298;2024-01-07T18:28:02;1.20;99.90
20915;DHT22;10617;52.032;5.298;2024-01-07T18:32:04;1.20;99.90
20915;DHT22;10617;52.032;5.298;2024-01-07T18:36:08;1.10;99.90
20915;DHT22;10617;52.032;5.298;2024-01-07T18:40:11;1.10;99.90
20915;DHT22;10617;52.032;5.298;2024-01-07T18:44:14;1.10;99.90
20915;DHT22;10617;52.032;5.298;2024-01-07T18:48:15;1.00;99.90
20915;DHT22;10617;52.032;5.298;2024-01-07T18:52:17;1.00;99.90
20915;DHT22;10617;52.032;5.298;2024-01-07T18:56:19;1.00;99.90
20915;DHT22;10617;52.032;5.298;2024-01-07T19:00:21;1.00;99.90
20915;DHT22;10617;52.032;5.298;2024-01-07T19:04:23;0.90;99.90
20915;DHT22;10617;52.032;5.298;2024-01-07T19:08:25;0.90;99.90
20915;DHT22;10617;52.032;5.298;2024-01-07T19:12:27;0.90;99.90
20915;DHT22;10617;52.032;5.298;2024-01-07T19:16:28;0.80;99.90
20915;DHT22;10617;52.032;5.298;2024-01-07T19:20:30;0.80;99.90
20915;DHT22;10617;52.032;5.298;2024-01-07T19:24:32;0.70;99.90
20915;DHT22;10617;52.032;5.298;2024-01-07T19:28:35;0.70;99.90
20915;DHT22;10617;52.032;5.298;2024-01-07T19:32:37;0.70;99.90
20915;DHT22;10617;52.032;5.298;2024-01-07T19:36:40;0.60;99.90
20915;DHT22;10617;52.032;5.298;2024-01-07T19:40:41;0.60;99.90
20915;DHT22;10617;52.032;5.298;2024-01-07T19:44:43;0.60;99.90
20915;DHT22;10617;52.032;5.298;2024-01-07T19:48:46;0.50;99.90
20915;DHT22;10617;52.032;5.298;2024-01-07T19:52:48;0.50;99.90
20915;DHT22;10617;52.032;5.298;2024-01-07T19:56:49;0.50;99.90
20915;DHT22;10617;52.032;5.298;2024-01-07T20:00:51;0.40;99.90
20915;DHT22;10617;52.032;5.298;2024-01-07T20:04:53;0.40;99.90
20915;DHT22;10617;52.032;5.298;2024-01-07T20:08:54;0.40;99.90
20915;DHT22;10617;52.032;5.298;2024-01-07T20:12:56;0.30;99.90
20915;DHT22;10617;52.032;5.298;2024-01-07T20:16:59;0.30;99.90
20915;DHT22;10617;52.032;5.298;2024-01-07T20:21:01;0.30;99.90
20915;DHT22;10617;52.032;5.298;2024-01-07T20:25:03;0.30;99.90
20915;DHT22;10617;52.032;5.298;2024-01-07T20:29:08;0.20;99.90
20915;DHT22;10617;52.032;5.298;2024-01-07T20:33:12;0.20;99.90
20915;DHT22;10617;52.032;5.298;2024-01-07T20:37:16;0.10;99.90
20915;DHT22;10617;52.032;5.298;2024-01-07T20:41:18;0.10;99.90
20915;DHT22;10617;52.032;5.298;2024-01-07T20:45:21;0.10;99.90
20915;DHT22;10617;52.032;5.298;2024-01-07T20:49:26;0.00;99.90
20915;DHT22;10617;52.032;5.298;2024-01-07T20:58:32;0.00;99.90
20915;DHT22;10617;52.032;5.298;2024-01-07T21:12:34;-0.10;99.90
20915;DHT22;10617;52.032;5.298;2024-01-07T21:16:36;-0.30;99.90
20915;DHT22;10617;52.032;5.298;2024-01-07T21:20:37;-0.30;99.90
20915;DHT22;10617;52.032;5.298;2024-01-07T21:24:40;-0.30;99.90
20915;DHT22;10617;52.032;5.298;2024-01-07T21:28:42;-0.30;99.90
20915;DHT22;10617;52.032;5.298;2024-01-07T21:32:44;-0.30;99.90
20915;DHT22;10617;52.032;5.298;2024-01-07T21:36:46;-0.40;99.90
20915;DHT22;10617;52.032;5.298;2024-01-07T21:40:48;-0.40;99.90
20915;DHT22;10617;52.032;5.298;2024-01-07T21:44:52;-0.50;99.90
20915;DHT22;10617;52.032;5.298;2024-01-07T21:48:53;-0.50;99.90
20915;DHT22;10617;52.032;5.298;2024-01-07T21:52:57;-0.50;99.90
20915;DHT22;10617;52.032;5.298;2024-01-07T21:56:59;-0.60;99.90
20915;DHT22;10617;52.032;5.298;2024-01-07T22:01:01;-0.60;99.90
20915;DHT22;10617;52.032;5.298;2024-01-07T22:05:04;-0.70;99.90
20915;DHT22;10617;52.032;5.298;2024-01-07T22:09:06;-0.70;99.90
20915;DHT22;10617;52.032;5.298;2024-01-07T22:13:08;-0.70;99.90
20915;DHT22;10617;52.032;5.298;2024-01-07T22:17:10;-0.60;99.90
20915;DHT22;10617;52.032;5.298;2024-01-07T22:21:18;-0.60;99.90
20915;DHT22;10617;52.032;5.298;2024-01-07T22:25:20;-0.60;99.90
20915;DHT22;10617;52.032;5.298;2024-01-07T22:29:22;-0.60;99.90
20915;DHT22;10617;52.032;5.298;2024-01-07T22:33:24;-0.50;99.90
20915;DHT22;10617;52.032;5.298;2024-01-07T22:37:26;-0.50;99.90
20915;DHT22;10617;52.032;5.298;2024-01-07T22:41:28;-0.50;99.90
20915;DHT22;10617;52.032;5.298;2024-01-07T22:45:31;-0.50;99.90
20915;DHT22;10617;52.032;5.298;2024-01-07T22:49:33;-0.50;99.90
20915;DHT22;10617;52.032;5.298;2024-01-07T22:53:35;-0.50;99.90
20915;DHT22;10617;52.032;5.298;2024-01-07T23:12:40;-0.40;99.90
20915;DHT22;10617;52.032;5.298;2024-01-07T23:16:42;-0.50;99.90
20915;DHT22;10617;52.032;5.298;2024-01-07T23:20:44;-0.50;99.90
20915;DHT22;10617;52.032;5.298;2024-01-07T23:24:45;-0.40;99.90
20915;DHT22;10617;52.032;5.298;2024-01-07T23:28:47;-0.40;99.90
20915;DHT22;10617;52.032;5.298;2024-01-07T23:32:49;-0.40;99.90
20915;DHT22;10617;52.032;5.298;2024-01-07T23:36:50;-0.40;99.90
20915;DHT22;10617;52.032;5.298;2024-01-07T23:40:52;-0.40;99.90
20915;DHT22;10617;52.032;5.298;2024-01-07T23:44:54;-0.40;99.90
20915;DHT22;10617;52.032;5.298;2024-01-07T23:48:55;-0.40;99.90
20915;DHT22;10617;52.032;5.298;2024-01-07T23:52:57;-0.30;99.90
20915;DHT22;10617;52.032;5.298;2024-01-07T23:56:59;-0.30;99.90
